sensor_id;sensor_type;location;lat;lon;timestamp;P1;durP1;ratioP1;P2;durP2;ratioP2
30000;SDS011;16845;48.670;9.000;2022-07-29T00:02:06;7.82;;;6.20;;
30000;SDS011;16845;48.670;9.000;2022-07-29T00:04:34;12.27;;;7.85;;
30000;SDS011;16845;48.670;9.000;2022-07-29T00:07:03;7.15;;;6.47;;
30000;SDS011;16845;48.670;9.000;2022-07-29T00:09:33;8.75;;;6.97;;
30000;SDS011;16845;48.670;9.000;2022-07-29T00:12:16;8.40;;;7.07;;
30000;SDS011;16845;48.670;9.000;2022-07-29T00:14:52;9.98;;;6.65;;
30000;SDS011;16845;48.670;9.000;2022-07-29T00:17:20;6.97;;;6.05;;
30000;SDS011;16845;48.670;9.000;2022-07-29T00:19:48;8.50;;;6.57;;
30000;SDS011;16845;48.670;9.000;2022-07-29T00:22:16;11.00;;;6.10;;
30000;SDS011;16845;48.670;9.000;2022-07-29T00:24:45;8.60;;;6.18;;
30000;SDS011;16845;48.670;9.000;2022-07-29T00:27:14;8.38;;;5.95;;
30000;SDS011;16845;48.670;9.000;2022-07-29T00:29:42;7.90;;;6.60;;
30000;SDS011;16845;48.670;9.000;2022-07-29T00:32:10;9.82;;;6.13;;
30000;SDS011;16845;48.670;9.000;2022-07-29T00:34:38;8.30;;;5.60;;
30000;SDS011;16845;48.670;9.000;2022-07-29T00:37:24;6.95;;;6.00;;
30000;SDS011;16845;48.670;9.000;2022-07-29T00:39:53;8.07;;;5.70;;
30000;SDS011;16845;48.670;9.000;2022-07-29T00:42:21;6.78;;;6.07;;
30000;SDS011;16845;48.670;9.000;2022-07-29T00:44:49;6.57;;;5.63;;
30000;SDS011;16845;48.670;9.000;2022-07-29T00:47:17;7.40;;;5.90;;
30000;SDS011;16845;48.670;9.000;2022-07-29T00:49:45;8.30;;;5.38;;
30000;SDS011;16845;48.670;9.000;2022-07-29T00:52:13;8.10;;;6.10;;
30000;SDS011;16845;48.670;9.000;2022-07-29T00:54:42;6.60;;;5.85;;
30000;SDS011;16845;48.670;9.000;2022-07-29T00:57:12;7.68;;;6.53;;
30000;SDS011;16845;48.670;9.000;2022-07-29T00:59:40;15.00;;;6.57;;
30000;SDS011;16845;48.670;9.000;2022-07-29T01:02:08;7.80;;;6.78;;
30000;SDS011;16845;48.670;9.000;2022-07-29T01:04:36;7.80;;;6.43;;
30000;SDS011;16845;48.670;9.000;2022-07-29T01:07:04;7.13;;;6.22;;
30000;SDS011;16845;48.670;9.000;2022-07-29T01:09:33;10.13;;;7.63;;
30000;SDS011;16845;48.670;9.000;2022-07-29T01:12:14;15.07;;;7.57;;
30000;SDS011;16845;48.670;9.000;2022-07-29T01:14:45;9.02;;;6.97;;
30000;SDS011;16845;48.670;9.000;2022-07-29T01:17:17;10.90;;;7.15;;
30000;SDS011;16845;48.670;9.000;2022-07-29T01:19:50;8.68;;;6.63;;
30000;SDS011;16845;48.670;9.000;2022-07-29T01:22:27;10.38;;;7.78;;
30000;SDS011;16845;48.670;9.000;2022-07-29T01:25:10;9.13;;;6.97;;
30000;SDS011;16845;48.670;9.000;2022-07-29T01:27:55;8.95;;;7.22;;
30000;SDS011;16845;48.670;9.000;2022-07-29T01:30:38;8.95;;;7.47;;
30000;SDS011;16845;48.670;9.000;2022-07-29T01:33:11;12.48;;;7.18;;
30000;SDS011;16845;48.670;9.000;2022-07-29T01:35:58;8.93;;;7.50;;
30000;SDS011;16845;48.670;9.000;2022-07-29T01:38:28;9.02;;;7.50;;
30000;SDS011;16845;48.670;9.000;2022-07-29T01:40:58;10.73;;;9.40;;
30000;SDS011;16845;48.670;9.000;2022-07-29T01:43:33;9.48;;;7.72;;
30000;SDS011;16845;48.670;9.000;2022-07-29T01:46:11;8.63;;;7.00;;
30000;SDS011;16845;48.670;9.000;2022-07-29T01:48:43;9.52;;;7.53;;
30000;SDS011;16845;48.670;9.000;2022-07-29T01:51:16;7.35;;;6.60;;
30000;SDS011;16845;48.670;9.000;2022-07-29T01:53:48;8.55;;;6.60;;
30000;SDS011;16845;48.670;9.000;2022-07-29T01:56:22;9.32;;;6.43;;
30000;SDS011;16845;48.670;9.000;2022-07-29T01:58:55;8.27;;;5.72;;
30000;SDS011;16845;48.670;9.000;2022-07-29T02:01:27;7.75;;;6.22;;
30000;SDS011;16845;48.670;9.000;2022-07-29T02:03:58;10.07;;;4.93;;
30000;SDS011;16845;48.670;9.000;2022-07-29T02:06:28;7.57;;;5.25;;
30000;SDS011;16845;48.670;9.000;2022-07-29T02:08:59;6.15;;;5.57;;
30000;SDS011;16845;48.670;9.000;2022-07-29T02:11:29;6.70;;;5.03;;
30000;SDS011;16845;48.670;9.000;2022-07-29T02:14:00;6.80;;;5.50;;
30000;SDS011;16845;48.670;9.000;2022-07-29T02:16:32;6.63;;;5.82;;
30000;SDS011;16845;48.670;9.000;2022-07-29T02:19:03;6.05;;;4.40;;
30000;SDS011;16845;48.670;9.000;2022-07-29T02:21:31;6.20;;;5.30;;
30000;SDS011;16845;48.670;9.000;2022-07-29T02:24:01;7.60;;;5.40;;
30000;SDS011;16845;48.670;9.000;2022-07-29T02:26:31;9.38;;;5.45;;
30000;SDS011;16845;48.670;9.000;2022-07-29T02:29:01;5.80;;;4.78;;
30000;SDS011;16845;48.670;9.000;2022-07-29T02:31:30;5.88;;;5.03;;
30000;SDS011;16845;48.670;9.000;2022-07-29T02:34:03;7.07;;;5.13;;
30000;SDS011;16845;48.670;9.000;2022-07-29T02:36:33;6.78;;;5.00;;
30000;SDS011;16845;48.670;9.000;2022-07-29T02:39:02;5.82;;;4.93;;
30000;SDS011;16845;48.670;9.000;2022-07-29T02:41:37;6.68;;;5.97;;
30000;SDS011;16845;48.670;9.000;2022-07-29T02:44:10;9.45;;;6.05;;
30000;SDS011;16845;48.670;9.000;2022-07-29T02:46:44;6.80;;;5.78;;
30000;SDS011;16845;48.670;9.000;2022-07-29T02:49:17;8.85;;;6.65;;
30000;SDS011;16845;48.670;9.000;2022-07-29T02:51:53;6.47;;;5.78;;
30000;SDS011;16845;48.670;9.000;2022-07-29T02:54:26;10.07;;;6.20;;
30000;SDS011;16845;48.670;9.000;2022-07-29T02:56:58;9.45;;;5.57;;
30000;SDS011;16845;48.670;9.000;2022-07-29T02:59:31;12.18;;;6.88;;
30000;SDS011;16845;48.670;9.000;2022-07-29T03:02:05;8.38;;;6.70;;
30000;SDS011;16845;48.670;9.000;2022-07-29T03:04:34;7.40;;;5.78;;
30000;SDS011;16845;48.670;9.000;2022-07-29T03:07:03;6.85;;;6.15;;
30000;SDS011;16845;48.670;9.000;2022-07-29T03:09:32;7.80;;;6.40;;
30000;SDS011;16845;48.670;9.000;2022-07-29T03:12:01;8.02;;;6.95;;
30000;SDS011;16845;48.670;9.000;2022-07-29T03:14:30;7.53;;;6.72;;
30000;SDS011;16845;48.670;9.000;2022-07-29T03:16:59;9.23;;;7.10;;
30000;SDS011;16845;48.670;9.000;2022-07-29T03:19:29;9.00;;;6.68;;
30000;SDS011;16845;48.670;9.000;2022-07-29T03:21:58;7.32;;;6.63;;
30000;SDS011;16845;48.670;9.000;2022-07-29T03:24:27;8.70;;;6.55;;
30000;SDS011;16845;48.670;9.000;2022-07-29T03:26:57;11.30;;;6.70;;
30000;SDS011;16845;48.670;9.000;2022-07-29T03:29:26;6.63;;;5.60;;
30000;SDS011;16845;48.670;9.000;2022-07-29T03:32:00;6.22;;;5.53;;
30000;SDS011;16845;48.670;9.000;2022-07-29T03:34:35;6.47;;;5.85;;
30000;SDS011;16845;48.670;9.000;2022-07-29T03:37:04;8.45;;;5.75;;
30000;SDS011;16845;48.670;9.000;2022-07-29T03:39:35;7.25;;;6.03;;
30000;SDS011;16845;48.670;9.000;2022-07-29T03:42:07;7.97;;;6.35;;
30000;SDS011;16845;48.670;9.000;2022-07-29T03:44:38;5.53;;;5.00;;
30000;SDS011;16845;48.670;9.000;2022-07-29T03:47:08;6.00;;;4.97;;
30000;SDS011;16845;48.670;9.000;2022-07-29T03:49:39;6.85;;;4.85;;
30000;SDS011;16845;48.670;9.000;2022-07-29T03:52:08;5.70;;;4.30;;
30000;SDS011;16845;48.670;9.000;2022-07-29T03:54:36;6.18;;;4.80;;
30000;SDS011;16845;48.670;9.000;2022-07-29T03:57:04;9.00;;;5.45;;
30000;SDS011;16845;48.670;9.000;2022-07-29T03:59:34;4.93;;;4.40;;
30000;SDS011;16845;48.670;9.000;2022-07-29T04:02:04;4.65;;;4.22;;
30000;SDS011;16845;48.670;9.000;2022-07-29T04:04:35;6.30;;;4.43;;
30000;SDS011;16845;48.670;9.000;2022-07-29T04:07:05;5.95;;;4.88;;
30000;SDS011;16845;48.670;9.000;2022-07-29T04:09:33;6.00;;;4.45;;
30000;SDS011;16845;48.670;9.000;2022-07-29T04:12:01;5.07;;;4.57;;
30000;SDS011;16845;48.670;9.000;2022-07-29T04:14:30;6.47;;;5.18;;
30000;SDS011;16845;48.670;9.000;2022-07-29T04:16:59;4.45;;;4.05;;
30000;SDS011;16845;48.670;9.000;2022-07-29T04:19:27;5.82;;;5.22;;
30000;SDS011;16845;48.670;9.000;2022-07-29T04:21:55;6.35;;;5.70;;
30000;SDS011;16845;48.670;9.000;2022-07-29T04:24:25;6.10;;;5.00;;
30000;SDS011;16845;48.670;9.000;2022-07-29T04:26:53;6.13;;;4.88;;
30000;SDS011;16845;48.670;9.000;2022-07-29T04:29:21;5.45;;;4.10;;
30000;SDS011;16845;48.670;9.000;2022-07-29T04:31:49;6.65;;;4.53;;
30000;SDS011;16845;48.670;9.000;2022-07-29T04:34:17;7.25;;;4.85;;
30000;SDS011;16845;48.670;9.000;2022-07-29T04:36:45;7.18;;;4.18;;
30000;SDS011;16845;48.670;9.000;2022-07-29T04:39:13;4.72;;;4.00;;
30000;SDS011;16845;48.670;9.000;2022-07-29T04:41:49;7.38;;;4.40;;
30000;SDS011;16845;48.670;9.000;2022-07-29T04:44:20;4.82;;;4.05;;
30000;SDS011;16845;48.670;9.000;2022-07-29T04:46:54;4.68;;;4.25;;
30000;SDS011;16845;48.670;9.000;2022-07-29T04:49:23;5.38;;;4.32;;
30000;SDS011;16845;48.670;9.000;2022-07-29T04:51:51;6.38;;;4.07;;
30000;SDS011;16845;48.670;9.000;2022-07-29T04:54:19;4.65;;;3.95;;
30000;SDS011;16845;48.670;9.000;2022-07-29T04:56:48;8.10;;;4.05;;
30000;SDS011;16845;48.670;9.000;2022-07-29T04:59:17;5.30;;;3.88;;
30000;SDS011;16845;48.670;9.000;2022-07-29T05:01:44;3.85;;;3.45;;
30000;SDS011;16845;48.670;9.000;2022-07-29T05:04:12;5.47;;;4.20;;
30000;SDS011;16845;48.670;9.000;2022-07-29T05:06:41;4.07;;;3.60;;
30000;SDS011;16845;48.670;9.000;2022-07-29T05:09:09;3.97;;;3.58;;
30000;SDS011;16845;48.670;9.000;2022-07-29T05:11:36;7.97;;;3.75;;
30000;SDS011;16845;48.670;9.000;2022-07-29T05:14:06;4.43;;;3.47;;
30000;SDS011;16845;48.670;9.000;2022-07-29T05:16:34;3.30;;;3.00;;
30000;SDS011;16845;48.670;9.000;2022-07-29T05:19:01;4.45;;;4.03;;
30000;SDS011;16845;48.670;9.000;2022-07-29T05:21:29;4.43;;;3.80;;
30000;SDS011;16845;48.670;9.000;2022-07-29T05:23:57;4.60;;;3.40;;
30000;SDS011;16845;48.670;9.000;2022-07-29T05:26:25;4.30;;;3.53;;
30000;SDS011;16845;48.670;9.000;2022-07-29T05:28:53;3.88;;;3.13;;
30000;SDS011;16845;48.670;9.000;2022-07-29T05:31:22;6.47;;;3.60;;
30000;SDS011;16845;48.670;9.000;2022-07-29T05:33:50;4.82;;;3.40;;
30000;SDS011;16845;48.670;9.000;2022-07-29T05:36:18;4.57;;;4.03;;
30000;SDS011;16845;48.670;9.000;2022-07-29T05:38:46;5.40;;;3.55;;
30000;SDS011;16845;48.670;9.000;2022-07-29T05:41:14;5.80;;;3.85;;
30000;SDS011;16845;48.670;9.000;2022-07-29T05:43:42;3.97;;;3.60;;
30000;SDS011;16845;48.670;9.000;2022-07-29T05:46:10;7.68;;;4.07;;
30000;SDS011;16845;48.670;9.000;2022-07-29T05:48:41;4.90;;;3.45;;
30000;SDS011;16845;48.670;9.000;2022-07-29T05:51:09;8.20;;;4.10;;
30000;SDS011;16845;48.670;9.000;2022-07-29T05:53:37;5.82;;;3.95;;
30000;SDS011;16845;48.670;9.000;2022-07-29T05:56:06;8.13;;;5.10;;
30000;SDS011;16845;48.670;9.000;2022-07-29T05:58:34;7.57;;;5.05;;
30000;SDS011;16845;48.670;9.000;2022-07-29T06:01:02;6.55;;;5.10;;
30000;SDS011;16845;48.670;9.000;2022-07-29T06:03:30;7.22;;;4.20;;
30000;SDS011;16845;48.670;9.000;2022-07-29T06:05:59;8.32;;;5.63;;
30000;SDS011;16845;48.670;9.000;2022-07-29T06:08:27;12.43;;;4.97;;
30000;SDS011;16845;48.670;9.000;2022-07-29T06:10:55;7.07;;;4.68;;
30000;SDS011;16845;48.670;9.000;2022-07-29T06:13:23;10.02;;;5.05;;
30000;SDS011;16845;48.670;9.000;2022-07-29T06:15:51;7.72;;;5.05;;
30000;SDS011;16845;48.670;9.000;2022-07-29T06:18:19;6.15;;;4.88;;
30000;SDS011;16845;48.670;9.000;2022-07-29T06:20:49;7.60;;;5.05;;
30000;SDS011;16845;48.670;9.000;2022-07-29T06:23:19;7.20;;;4.70;;
30000;SDS011;16845;48.670;9.000;2022-07-29T06:25:47;7.00;;;5.00;;
30000;SDS011;16845;48.670;9.000;2022-07-29T06:28:15;6.32;;;4.65;;
30000;SDS011;16845;48.670;9.000;2022-07-29T06:30:43;5.57;;;4.35;;
30000;SDS011;16845;48.670;9.000;2022-07-29T06:33:15;4.95;;;4.45;;
30000;SDS011;16845;48.670;9.000;2022-07-29T06:35:44;6.05;;;4.57;;
30000;SDS011;16845;48.670;9.000;2022-07-29T06:38:21;11.80;;;5.10;;
30000;SDS011;16845;48.670;9.000;2022-07-29T06:40:58;5.18;;;4.40;;
30000;SDS011;16845;48.670;9.000;2022-07-29T06:43:27;24.52;;;4.60;;
30000;SDS011;16845;48.670;9.000;2022-07-29T06:45:58;6.38;;;4.70;;
30000;SDS011;16845;48.670;9.000;2022-07-29T06:48:27;11.80;;;4.80;;
30000;SDS011;16845;48.670;9.000;2022-07-29T06:50:55;6.47;;;4.50;;
30000;SDS011;16845;48.670;9.000;2022-07-29T06:53:25;6.25;;;4.75;;
30000;SDS011;16845;48.670;9.000;2022-07-29T06:55:53;6.28;;;4.60;;
30000;SDS011;16845;48.670;9.000;2022-07-29T06:58:21;6.90;;;5.00;;
30000;SDS011;16845;48.670;9.000;2022-07-29T07:00:49;9.20;;;4.72;;
30000;SDS011;16845;48.670;9.000;2022-07-29T07:03:17;4.95;;;4.45;;
30000;SDS011;16845;48.670;9.000;2022-07-29T07:05:46;9.80;;;5.22;;
30000;SDS011;16845;48.670;9.000;2022-07-29T07:08:14;8.40;;;4.85;;
30000;SDS011;16845;48.670;9.000;2022-07-29T07:10:44;6.10;;;5.10;;
30000;SDS011;16845;48.670;9.000;2022-07-29T07:13:13;5.90;;;4.30;;
30000;SDS011;16845;48.670;9.000;2022-07-29T07:15:43;6.55;;;4.30;;
30000;SDS011;16845;48.670;9.000;2022-07-29T07:18:11;9.10;;;5.38;;
30000;SDS011;16845;48.670;9.000;2022-07-29T07:20:39;9.25;;;4.82;;
30000;SDS011;16845;48.670;9.000;2022-07-29T07:23:07;7.20;;;5.00;;
30000;SDS011;16845;48.670;9.000;2022-07-29T07:25:35;6.78;;;4.82;;
30000;SDS011;16845;48.670;9.000;2022-07-29T07:28:05;5.03;;;4.05;;
30000;SDS011;16845;48.670;9.000;2022-07-29T07:30:33;4.50;;;4.10;;
30000;SDS011;16845;48.670;9.000;2022-07-29T07:33:01;4.78;;;4.38;;
30000;SDS011;16845;48.670;9.000;2022-07-29T07:35:29;9.75;;;4.40;;
30000;SDS011;16845;48.670;9.000;2022-07-29T07:37:58;8.40;;;4.82;;
30000;SDS011;16845;48.670;9.000;2022-07-29T07:40:26;5.47;;;4.30;;
30000;SDS011;16845;48.670;9.000;2022-07-29T07:42:54;11.15;;;3.97;;
30000;SDS011;16845;48.670;9.000;2022-07-29T07:45:23;4.15;;;3.75;;
30000;SDS011;16845;48.670;9.000;2022-07-29T07:47:52;5.35;;;3.97;;
30000;SDS011;16845;48.670;9.000;2022-07-29T07:50:19;7.10;;;4.35;;
30000;SDS011;16845;48.670;9.000;2022-07-29T07:52:48;7.88;;;4.22;;
30000;SDS011;16845;48.670;9.000;2022-07-29T07:55:17;7.38;;;3.88;;
30000;SDS011;16845;48.670;9.000;2022-07-29T07:57:46;7.30;;;5.05;;
30000;SDS011;16845;48.670;9.000;2022-07-29T08:00:14;7.90;;;3.97;;
30000;SDS011;16845;48.670;9.000;2022-07-29T08:02:46;7.95;;;3.97;;
30000;SDS011;16845;48.670;9.000;2022-07-29T08:05:14;6.55;;;3.78;;
30000;SDS011;16845;48.670;9.000;2022-07-29T08:07:44;4.82;;;3.60;;
30000;SDS011;16845;48.670;9.000;2022-07-29T08:10:13;5.40;;;3.55;;
30000;SDS011;16845;48.670;9.000;2022-07-29T08:12:43;4.65;;;4.10;;
30000;SDS011;16845;48.670;9.000;2022-07-29T08:15:11;9.48;;;3.42;;
30000;SDS011;16845;48.670;9.000;2022-07-29T08:17:39;5.55;;;2.97;;
30000;SDS011;16845;48.670;9.000;2022-07-29T08:20:10;4.97;;;3.28;;
30000;SDS011;16845;48.670;9.000;2022-07-29T08:22:38;7.53;;;4.20;;
30000;SDS011;16845;48.670;9.000;2022-07-29T08:25:06;5.20;;;3.58;;
30000;SDS011;16845;48.670;9.000;2022-07-29T08:27:34;6.07;;;3.60;;
30000;SDS011;16845;48.670;9.000;2022-07-29T08:30:09;6.75;;;3.80;;
30000;SDS011;16845;48.670;9.000;2022-07-29T08:32:38;5.45;;;3.08;;
30000;SDS011;16845;48.670;9.000;2022-07-29T08:35:21;7.95;;;3.67;;
30000;SDS011;16845;48.670;9.000;2022-07-29T08:37:49;6.18;;;4.00;;
30000;SDS011;16845;48.670;9.000;2022-07-29T08:40:18;6.32;;;3.25;;
30000;SDS011;16845;48.670;9.000;2022-07-29T08:42:58;9.13;;;4.28;;
30000;SDS011;16845;48.670;9.000;2022-07-29T08:45:26;11.63;;;4.05;;
30000;SDS011;16845;48.670;9.000;2022-07-29T08:47:56;6.97;;;4.00;;
30000;SDS011;16845;48.670;9.000;2022-07-29T08:50:25;4.57;;;3.35;;
30000;SDS011;16845;48.670;9.000;2022-07-29T08:52:53;6.70;;;3.10;;
30000;SDS011;16845;48.670;9.000;2022-07-29T08:55:25;6.25;;;4.45;;
30000;SDS011;16845;48.670;9.000;2022-07-29T08:57:53;10.95;;;3.00;;
30000;SDS011;16845;48.670;9.000;2022-07-29T09:00:22;8.80;;;3.53;;
30000;SDS011;16845;48.670;9.000;2022-07-29T09:02:55;5.28;;;3.00;;
30000;SDS011;16845;48.670;9.000;2022-07-29T09:05:26;9.68;;;3.63;;
30000;SDS011;16845;48.670;9.000;2022-07-29T09:07:55;4.68;;;3.00;;
30000;SDS011;16845;48.670;9.000;2022-07-29T09:10:23;14.30;;;3.22;;
30000;SDS011;16845;48.670;9.000;2022-07-29T09:12:51;3.97;;;2.80;;
30000;SDS011;16845;48.670;9.000;2022-07-29T09:15:21;5.47;;;3.20;;
30000;SDS011;16845;48.670;9.000;2022-07-29T09:17:49;4.72;;;3.05;;
30000;SDS011;16845;48.670;9.000;2022-07-29T09:20:18;4.20;;;3.80;;
30000;SDS011;16845;48.670;9.000;2022-07-29T09:22:49;7.35;;;3.20;;
30000;SDS011;16845;48.670;9.000;2022-07-29T09:25:32;6.47;;;3.20;;
30000;SDS011;16845;48.670;9.000;2022-07-29T09:28:10;9.20;;;3.35;;
30000;SDS011;16845;48.670;9.000;2022-07-29T09:30:41;10.05;;;3.45;;
30000;SDS011;16845;48.670;9.000;2022-07-29T09:33:18;6.60;;;3.38;;
30000;SDS011;16845;48.670;9.000;2022-07-29T09:35:58;6.00;;;3.33;;
30000;SDS011;16845;48.670;9.000;2022-07-29T09:38:30;6.13;;;3.03;;
30000;SDS011;16845;48.670;9.000;2022-07-29T09:40:59;10.52;;;3.50;;
30000;SDS011;16845;48.670;9.000;2022-07-29T09:43:31;10.27;;;4.05;;
30000;SDS011;16845;48.670;9.000;2022-07-29T09:46:09;5.75;;;3.25;;
30000;SDS011;16845;48.670;9.000;2022-07-29T09:48:38;10.43;;;3.45;;
30000;SDS011;16845;48.670;9.000;2022-07-29T09:51:16;5.03;;;3.75;;
30000;SDS011;16845;48.670;9.000;2022-07-29T09:53:49;8.32;;;3.58;;
30000;SDS011;16845;48.670;9.000;2022-07-29T09:56:18;6.45;;;3.63;;
30000;SDS011;16845;48.670;9.000;2022-07-29T09:58:46;9.13;;;3.42;;
30000;SDS011;16845;48.670;9.000;2022-07-29T10:01:14;9.07;;;3.90;;
30000;SDS011;16845;48.670;9.000;2022-07-29T10:03:52;9.10;;;3.70;;
30000;SDS011;16845;48.670;9.000;2022-07-29T10:08:49;9.88;;;3.25;;
30000;SDS011;16845;48.670;9.000;2022-07-29T10:11:18;6.13;;;3.45;;
30000;SDS011;16845;48.670;9.000;2022-07-29T10:13:47;5.32;;;2.83;;
30000;SDS011;16845;48.670;9.000;2022-07-29T10:16:16;6.05;;;3.72;;
30000;SDS011;16845;48.670;9.000;2022-07-29T10:18:44;14.10;;;4.93;;
30000;SDS011;16845;48.670;9.000;2022-07-29T10:21:13;5.35;;;3.53;;
30000;SDS011;16845;48.670;9.000;2022-07-29T10:24:02;6.45;;;3.00;;
30000;SDS011;16845;48.670;9.000;2022-07-29T10:26:39;8.50;;;2.80;;
30000;SDS011;16845;48.670;9.000;2022-07-29T10:29:08;8.50;;;2.85;;
30000;SDS011;16845;48.670;9.000;2022-07-29T10:31:39;6.90;;;2.20;;
30000;SDS011;16845;48.670;9.000;2022-07-29T10:34:13;4.95;;;2.60;;
30000;SDS011;16845;48.670;9.000;2022-07-29T10:36:52;6.78;;;2.67;;
30000;SDS011;16845;48.670;9.000;2022-07-29T10:39:32;6.88;;;2.80;;
30000;SDS011;16845;48.670;9.000;2022-07-29T10:42:17;9.05;;;3.42;;
30000;SDS011;16845;48.670;9.000;2022-07-29T10:45:00;6.10;;;3.63;;
30000;SDS011;16845;48.670;9.000;2022-07-29T10:47:31;11.57;;;4.43;;
30000;SDS011;16845;48.670;9.000;2022-07-29T10:50:01;13.93;;;4.78;;
30000;SDS011;16845;48.670;9.000;2022-07-29T10:55:37;17.35;;;5.65;;
30000;SDS011;16845;48.670;9.000;2022-07-29T11:00:44;12.63;;;6.10;;
30000;SDS011;16845;48.670;9.000;2022-07-29T11:06:15;10.63;;;6.43;;
30000;SDS011;16845;48.670;9.000;2022-07-29T11:12:09;14.52;;;7.80;;
30000;SDS011;16845;48.670;9.000;2022-07-29T11:15:15;11.60;;;7.75;;
30000;SDS011;16845;48.670;9.000;2022-07-29T11:20:43;15.55;;;8.50;;
30000;SDS011;16845;48.670;9.000;2022-07-29T11:23:22;8.90;;;6.75;;
30000;SDS011;16845;48.670;9.000;2022-07-29T11:28:51;16.02;;;7.10;;
30000;SDS011;16845;48.670;9.000;2022-07-29T11:31:32;7.65;;;6.30;;
30000;SDS011;16845;48.670;9.000;2022-07-29T11:34:18;10.05;;;7.35;;
30000;SDS011;16845;48.670;9.000;2022-07-29T11:39:44;11.15;;;6.63;;
30000;SDS011;16845;48.670;9.000;2022-07-29T11:45:11;11.55;;;7.07;;
30000;SDS011;16845;48.670;9.000;2022-07-29T11:48:01;14.18;;;8.48;;
30000;SDS011;16845;48.670;9.000;2022-07-29T11:50:52;11.32;;;7.18;;
30000;SDS011;16845;48.670;9.000;2022-07-29T11:53:23;13.18;;;7.80;;
30000;SDS011;16845;48.670;9.000;2022-07-29T11:55:58;9.48;;;6.10;;
30000;SDS011;16845;48.670;9.000;2022-07-29T11:58:28;7.47;;;6.25;;
30000;SDS011;16845;48.670;9.000;2022-07-29T12:00:58;7.32;;;5.30;;
30000;SDS011;16845;48.670;9.000;2022-07-29T12:03:30;6.80;;;5.68;;
30000;SDS011;16845;48.670;9.000;2022-07-29T12:06:02;7.63;;;5.45;;
30000;SDS011;16845;48.670;9.000;2022-07-29T12:08:38;10.45;;;5.45;;
30000;SDS011;16845;48.670;9.000;2022-07-29T12:11:14;8.10;;;5.40;;
30000;SDS011;16845;48.670;9.000;2022-07-29T12:13:47;10.93;;;4.78;;
30000;SDS011;16845;48.670;9.000;2022-07-29T12:16:17;10.90;;;5.40;;
30000;SDS011;16845;48.670;9.000;2022-07-29T12:18:56;5.43;;;4.47;;
30000;SDS011;16845;48.670;9.000;2022-07-29T12:21:26;8.68;;;4.63;;
30000;SDS011;16845;48.670;9.000;2022-07-29T12:23:54;6.60;;;5.32;;
30000;SDS011;16845;48.670;9.000;2022-07-29T12:26:33;6.57;;;4.45;;
30000;SDS011;16845;48.670;9.000;2022-07-29T12:29:02;7.13;;;4.32;;
30000;SDS011;16845;48.670;9.000;2022-07-29T12:31:38;6.00;;;4.00;;
30000;SDS011;16845;48.670;9.000;2022-07-29T12:34:09;6.72;;;4.43;;
30000;SDS011;16845;48.670;9.000;2022-07-29T12:36:38;5.65;;;4.65;;
30000;SDS011;16845;48.670;9.000;2022-07-29T12:39:07;5.50;;;4.32;;
30000;SDS011;16845;48.670;9.000;2022-07-29T12:41:36;4.85;;;4.38;;
30000;SDS011;16845;48.670;9.000;2022-07-29T12:44:04;5.32;;;4.75;;
30000;SDS011;16845;48.670;9.000;2022-07-29T12:46:32;8.38;;;5.30;;
30000;SDS011;16845;48.670;9.000;2022-07-29T12:49:02;15.80;;;6.00;;
30000;SDS011;16845;48.670;9.000;2022-07-29T12:51:31;13.50;;;6.28;;
30000;SDS011;16845;48.670;9.000;2022-07-29T12:54:04;12.63;;;6.95;;
30000;SDS011;16845;48.670;9.000;2022-07-29T12:56:34;16.35;;;7.90;;
30000;SDS011;16845;48.670;9.000;2022-07-29T12:59:11;8.80;;;7.13;;
30000;SDS011;16845;48.670;9.000;2022-07-29T13:01:40;123.15;;;19.90;;
30000;SDS011;16845;48.670;9.000;2022-07-29T13:04:09;15.77;;;8.25;;
30000;SDS011;16845;48.670;9.000;2022-07-29T13:06:38;12.13;;;8.90;;
30000;SDS011;16845;48.670;9.000;2022-07-29T13:09:08;10.63;;;9.25;;
30000;SDS011;16845;48.670;9.000;2022-07-29T13:11:38;15.05;;;11.10;;
30000;SDS011;16845;48.670;9.000;2022-07-29T13:14:14;15.02;;;11.75;;
30000;SDS011;16845;48.670;9.000;2022-07-29T13:17:01;19.38;;;12.70;;
30000;SDS011;16845;48.670;9.000;2022-07-29T13:19:36;17.20;;;12.30;;
30000;SDS011;16845;48.670;9.000;2022-07-29T13:22:07;22.55;;;15.07;;
30000;SDS011;16845;48.670;9.000;2022-07-29T13:24:46;31.67;;;21.40;;
30000;SDS011;16845;48.670;9.000;2022-07-29T13:27:15;309.08;;;47.63;;
30000;SDS011;16845;48.670;9.000;2022-07-29T13:29:44;23.52;;;17.00;;
30000;SDS011;16845;48.670;9.000;2022-07-29T13:32:12;20.05;;;16.95;;
30000;SDS011;16845;48.670;9.000;2022-07-29T13:34:42;20.08;;;12.18;;
30000;SDS011;16845;48.670;9.000;2022-07-29T13:37:10;17.05;;;12.40;;
30000;SDS011;16845;48.670;9.000;2022-07-29T13:39:38;15.70;;;12.90;;
30000;SDS011;16845;48.670;9.000;2022-07-29T13:42:06;13.40;;;9.82;;
30000;SDS011;16845;48.670;9.000;2022-07-29T13:44:36;13.27;;;10.18;;
30000;SDS011;16845;48.670;9.000;2022-07-29T13:47:04;14.65;;;9.95;;
30000;SDS011;16845;48.670;9.000;2022-07-29T13:49:32;14.02;;;11.02;;
30000;SDS011;16845;48.670;9.000;2022-07-29T13:52:02;9.70;;;8.70;;
30000;SDS011;16845;48.670;9.000;2022-07-29T13:54:33;12.75;;;8.45;;
30000;SDS011;16845;48.670;9.000;2022-07-29T13:57:08;8.27;;;7.43;;
30000;SDS011;16845;48.670;9.000;2022-07-29T13:59:37;12.50;;;8.80;;
30000;SDS011;16845;48.670;9.000;2022-07-29T14:02:05;8.73;;;7.65;;
30000;SDS011;16845;48.670;9.000;2022-07-29T14:04:33;11.70;;;6.93;;
30000;SDS011;16845;48.670;9.000;2022-07-29T14:07:06;8.77;;;7.85;;
30000;SDS011;16845;48.670;9.000;2022-07-29T14:09:35;11.98;;;7.10;;
30000;SDS011;16845;48.670;9.000;2022-07-29T14:12:07;8.68;;;7.57;;
30000;SDS011;16845;48.670;9.000;2022-07-29T14:14:35;9.63;;;7.20;;
30000;SDS011;16845;48.670;9.000;2022-07-29T14:17:03;11.48;;;8.65;;
30000;SDS011;16845;48.670;9.000;2022-07-29T14:19:33;9.02;;;7.32;;
30000;SDS011;16845;48.670;9.000;2022-07-29T14:22:06;11.10;;;6.82;;
30000;SDS011;16845;48.670;9.000;2022-07-29T14:24:36;10.18;;;8.52;;
30000;SDS011;16845;48.670;9.000;2022-07-29T14:27:04;9.85;;;7.60;;
30000;SDS011;16845;48.670;9.000;2022-07-29T14:29:34;8.73;;;7.20;;
30000;SDS011;16845;48.670;9.000;2022-07-29T14:32:04;11.43;;;8.02;;
30000;SDS011;16845;48.670;9.000;2022-07-29T14:34:33;9.48;;;7.35;;
30000;SDS011;16845;48.670;9.000;2022-07-29T14:37:01;7.72;;;6.93;;
30000;SDS011;16845;48.670;9.000;2022-07-29T14:39:32;10.77;;;7.78;;
30000;SDS011;16845;48.670;9.000;2022-07-29T14:42:08;7.68;;;6.85;;
30000;SDS011;16845;48.670;9.000;2022-07-29T14:44:37;11.02;;;6.45;;
30000;SDS011;16845;48.670;9.000;2022-07-29T14:47:06;8.10;;;6.70;;
30000;SDS011;16845;48.670;9.000;2022-07-29T14:49:34;13.60;;;7.65;;
30000;SDS011;16845;48.670;9.000;2022-07-29T14:52:03;10.73;;;6.07;;
30000;SDS011;16845;48.670;9.000;2022-07-29T14:54:32;13.93;;;5.93;;
30000;SDS011;16845;48.670;9.000;2022-07-29T14:57:00;7.72;;;6.95;;
30000;SDS011;16845;48.670;9.000;2022-07-29T14:59:28;16.27;;;7.10;;
30000;SDS011;16845;48.670;9.000;2022-07-29T15:01:56;11.43;;;7.53;;
30000;SDS011;16845;48.670;9.000;2022-07-29T15:04:24;7.72;;;6.97;;
30000;SDS011;16845;48.670;9.000;2022-07-29T15:06:52;8.80;;;7.38;;
30000;SDS011;16845;48.670;9.000;2022-07-29T15:09:21;11.85;;;7.78;;
30000;SDS011;16845;48.670;9.000;2022-07-29T15:11:50;11.00;;;7.65;;
30000;SDS011;16845;48.670;9.000;2022-07-29T15:14:18;10.23;;;7.20;;
30000;SDS011;16845;48.670;9.000;2022-07-29T15:16:46;10.73;;;6.72;;
30000;SDS011;16845;48.670;9.000;2022-07-29T15:19:17;9.27;;;6.45;;
30000;SDS011;16845;48.670;9.000;2022-07-29T15:21:45;9.27;;;7.10;;
30000;SDS011;16845;48.670;9.000;2022-07-29T15:24:14;9.57;;;6.55;;
30000;SDS011;16845;48.670;9.000;2022-07-29T15:26:43;10.50;;;7.70;;
30000;SDS011;16845;48.670;9.000;2022-07-29T15:29:13;9.80;;;7.60;;
30000;SDS011;16845;48.670;9.000;2022-07-29T15:31:41;11.82;;;7.10;;